Time,TemperatureF,DewpointF,PressureIn,WindDirection,WindDirectionDegrees,WindSpeedMPH,WindSpeedGustMPH,Humidity,HourlyPrecipIn,Conditions,Clouds,dailyrainin,SoftwareType,DateUTC
2013-04-10 00:00:00,45.7,41.4,29.81,North,1,0.0,0.0,85,0.00,CLR,SKC,0.00,WeatherDisplay:10.37,2013-04-09 22:00:00,
2013-04-10 00:10:00,45.7,41.7,29.81,North,1,0.0,0.0,86,0.00,CLR,SKC,0.00,WeatherDisplay:10.37,2013-04-09 22:10:00,
2013-04-10 00:20:00,45.5,41.6,29.81,North,1,0.0,0.0,86,0.00,BKN,SKC,0.00,WeatherDisplay:10.37,2013-04-09 22:20:00,
2013-04-10 00:30:00,45.3,41.4,29.82,North,1,0.0,0.0,86,0.00,BKN,SKC,0.00,WeatherDisplay:10.37,2013-04-09 22:30:00,
2013-04-10 00:40:00,45.1,41.2,29.81,North,1,0.0,0.0,86,0.00,BKN,SKC,0.00,WeatherDisplay:10.37,2013-04-09 22:40:00,
2013-04-10 00:50:00,45.1,41.2,29.81,North,1,0.0,0.0,86,0.00,BKN,SKC,0.00,WeatherDisplay:10.37,2013-04-09 22:50:00,
2013-04-10 01:00:00,45.1,41.5,29.81,North,1,0.0,0.0,87,0.00,BKN,SKC,0.00,WeatherDisplay:10.37,2013-04-09 23:00:00,
2013-04-10 01:10:00,45.1,41.5,29.81,North,1,0.0,0.0,87,0.00,BKN,SKC,0.00,WeatherDisplay:10.37,2013-04-09 23:10:00,
2013-04-10 01:20:00,45.1,41.5,29.80,North,1,0.0,0.0,87,0.00,BKN,SKC,0.00,WeatherDisplay:10.37,2013-04-09 23:20:00,
2013-04-10 01:30:00,45.1,41.5,29.80,North,1,0.0,0.0,87,0.00,BKN,SKC,0.00,WeatherDisplay:10.37,2013-04-09 23:30:00,
2013-04-10 01:40:00,45.1,41.5,29.80,North,1,0.0,0.0,87,0.00,BKN,SKC,0.00,WeatherDisplay:10.37,2013-04-09 23:40:00,
2013-04-10 01:50:00,45.0,41.6,29.79,North,1,0.0,0.0,88,0.00,BKN,SKC,0.00,WeatherDisplay:10.37,2013-04-09 23:50:00,
2013-04-10 02:00:00,45.0,41.6,29.79,North,1,0.0,0.0,88,0.00,BKN,SKC,0.00,WeatherDisplay:10.37,2013-04-10 00:00:00,
2013-04-10 02:10:00,45.1,41.8,29.79,North,1,0.0,0.0,88,0.00,BKN,SKC,0.00,WeatherDisplay:10.37,2013-04-10 00:10:00,
2013-04-10 02:20:00,45.1,41.8,29.79,North,1,0.0,0.0,88,0.00,BKN,SKC,0.00,WeatherDisplay:10.37,2013-04-10 00:20:00,
2013-04-10 02:30:00,45.1,41.8,29.79,North,1,0.0,0.0,88,0.00,BKN,SKC,0.00,WeatherDisplay:10.37,2013-04-10 00:30:00,
2013-04-10 02:40:00,45.0,41.6,29.79,North,1,0.0,0.0,88,0.00,BKN,SKC,0.00,WeatherDisplay:10.37,2013-04-10 00:40:00,
2013-04-10 02:50:00,44.8,41.4,29.79,North,1,0.0,0.0,88,0.00,BKN,SKC,0.00,WeatherDisplay:10.37,2013-04-10 00:50:00,
2013-04-10 03:00:00,44.8,41.4,29.78,North,1,0.0,0.0,88,0.00,BKN,SKC,0.00,WeatherDisplay:10.37,2013-04-10 01:00:00,
2013-04-10 03:10:00,45.0,41.6,29.78,North,1,0.0,0.0,88,0.00,BKN,SKC,0.00,WeatherDisplay:10.37,2013-04-10 01:10:00,
2013-04-10 03:20:00,45.0,41.6,29.79,North,1,0.0,0.0,88,0.00,BKN,SKC,0.00,WeatherDisplay:10.37,2013-04-10 01:20:00,
2013-04-10 03:30:00,45.1,41.7,29.79,North,1,0.0,0.0,88,0.00,BKN,SKC,0.00,WeatherDisplay:10.37,2013-04-10 01:30:00,
2013-04-10 03:40:00,45.1,41.8,29.79,North,1,0.0,0.0,88,0.00,BKN,SKC,0.00,WeatherDisplay:10.37,2013-04-10 01:40:00,
2013-04-10 03:50:00,45.1,41.8,29.78,North,1,0.0,0.0,88,0.00,BKN,SKC,0.00,WeatherDisplay:10.37,2013-04-10 01:50:00,
2013-04-10 04:00:00,45.1,41.8,29.78,North,1,0.0,0.0,88,0.00,BKN,SKC,0.00,WeatherDisplay:10.37,2013-04-10 02:00:00,
2013-04-10 04:10:00,45.0,41.6,29.78,North,1,0.0,0.0,88,0.00,BKN,SKC,0.00,WeatherDisplay:10.37,2013-04-10 02:10:00,
2013-04-10 04:20:00,45.0,41.6,29.78,North,1,0.0,0.0,88,0.00,BKN,SKC,0.00,WeatherDisplay:10.37,2013-04-10 02:20:00,
2013-04-10 04:30:00,45.0,41.9,29.78,North,1,0.0,0.0,89,0.00,BKN,SKC,0.00,WeatherDisplay:10.37,2013-04-10 02:30:00,
2013-04-10 04:40:00,45.0,41.9,29.77,North,1,0.0,0.0,89,0.00,BKN,SKC,0.00,WeatherDisplay:10.37,2013-04-10 02:40:00,
2013-04-10 04:50:00,44.8,41.7,29.78,North,1,0.0,0.0,89,0.00,BKN,SKC,0.00,WeatherDisplay:10.37,2013-04-10 02:50:00,
2013-04-10 05:00:00,44.8,41.7,29.78,North,1,0.0,0.0,89,0.00,BKN,SKC,0.00,WeatherDisplay:10.37,2013-04-10 03:00:00,
2013-04-10 05:10:00,44.6,41.6,29.77,North,1,0.0,0.0,89,0.00,BKN,SKC,0.00,WeatherDisplay:10.37,2013-04-10 03:10:00,
2013-04-10 05:20:00,44.6,41.6,29.77,North,1,0.0,0.0,89,0.00,-RA,SKC,0.00,WeatherDisplay:10.37,2013-04-10 03:20:00,
2013-04-10 05:30:00,44.4,41.4,29.77,North,1,0.0,0.0,89,0.00,-RA,SKC,0.00,WeatherDisplay:10.37,2013-04-10 03:30:00,
2013-04-10 05:40:00,44.4,41.4,29.78,North,1,0.0,0.0,89,0.00,-RA,SKC,0.00,WeatherDisplay:10.37,2013-04-10 03:40:00,
2013-04-10 05:50:00,44.2,41.2,29.77,North,1,0.0,0.0,89,0.00,-RA,SKC,0.00,WeatherDisplay:10.37,2013-04-10 03:50:00,
2013-04-10 06:00:00,44.1,41.0,29.77,North,1,0.0,0.0,89,0.00,-RA,SKC,0.00,WeatherDisplay:10.37,2013-04-10 04:00:00,
2013-04-10 06:10:00,43.9,41.1,29.77,North,1,0.0,0.0,90,0.00,BKN,SKC,0.00,WeatherDisplay:10.37,2013-04-10 04:10:00,
2013-04-10 06:20:00,43.7,41.0,29.77,North,1,0.0,0.0,90,0.00,BKN,SKC,0.00,WeatherDisplay:10.37,2013-04-10 04:20:00,
2013-04-10 06:30:00,43.5,40.5,29.77,North,1,0.0,0.0,89,0.00,BKN,SKC,0.00,WeatherDisplay:10.37,2013-04-10 04:30:00,
2013-04-10 06:40:00,43.3,40.3,29.78,North,1,0.0,0.0,89,0.00,BKN,SKC,0.00,WeatherDisplay:10.37,2013-04-10 04:40:00,
2013-04-10 06:50:00,43.3,40.3,29.78,North,1,0.0,0.0,89,0.00,BKN,SKC,0.00,WeatherDisplay:10.37,2013-04-10 04:50:00,
2013-04-10 07:00:00,43.3,40.3,29.78,North,1,0.0,0.0,89,0.00,BKN,SKC,0.00,WeatherDisplay:10.37,2013-04-10 05:00:00,
2013-04-10 07:10:00,43.3,40.6,29.78,North,1,0.0,0.0,90,0.00,BKN,SKC,0.00,WeatherDisplay:10.37,2013-04-10 05:10:00,
2013-04-10 07:20:00,43.3,40.6,29.79,North,1,0.0,0.0,90,0.00,OVC,SKC,0.00,WeatherDisplay:10.37,2013-04-10 05:20:00,
2013-04-10 07:30:00,43.5,40.8,29.79,North,1,0.0,0.0,90,0.00,OVC,SKC,0.00,WeatherDisplay:10.37,2013-04-10 05:30:00,
2013-04-10 07:40:00,43.7,41.0,29.78,North,1,0.0,0.0,90,0.00,OVC,SKC,0.00,WeatherDisplay:10.37,2013-04-10 05:40:00,
2013-04-10 07:50:00,44.2,41.5,29.79,North,1,0.0,0.0,90,0.00,OVC,SKC,0.00,WeatherDisplay:10.37,2013-04-10 05:50:00,
2013-04-10 08:00:00,44.4,41.7,29.79,North,1,0.0,0.0,90,0.00,OVC,SKC,0.00,WeatherDisplay:10.37,2013-04-10 06:00:00,
2013-04-10 08:10:00,44.4,41.7,29.80,North,1,0.0,0.0,90,0.00,OVC,SKC,0.00,WeatherDisplay:10.37,2013-04-10 06:10:00,
2013-04-10 08:20:00,45.0,42.2,29.80,North,1,0.0,0.0,90,0.00,BKN,SKC,0.00,WeatherDisplay:10.37,2013-04-10 06:20:00,
2013-04-10 08:30:00,45.3,42.6,29.80,North,1,0.0,0.0,90,0.00,BKN,SKC,0.00,WeatherDisplay:10.37,2013-04-10 06:30:00,
2013-04-10 08:40:00,45.9,43.1,29.80,North,1,0.0,0.0,90,0.00,BKN,SKC,0.00,WeatherDisplay:10.37,2013-04-10 06:40:00,
2013-04-10 08:50:00,46.6,44.1,29.80,North,1,0.0,0.0,91,0.00,BKN,SKC,0.00,WeatherDisplay:10.37,2013-04-10 06:50:00,
2013-04-10 09:00:00,47.1,44.3,29.81,North,1,0.0,0.0,90,0.00,BKN,SKC,0.00,WeatherDisplay:10.37,2013-04-10 07:00:00,
2013-04-10 09:10:00,47.5,44.7,29.81,North,1,0.0,0.0,90,0.00,BKN,SKC,0.00,WeatherDisplay:10.37,2013-04-10 07:10:00,
2013-04-10 09:20:00,47.8,44.8,29.80,North,1,0.0,0.0,89,0.00,BKN,SKC,0.00,WeatherDisplay:10.37,2013-04-10 07:20:00,
2013-04-10 09:30:00,48.0,44.9,29.80,North,1,0.0,0.0,89,0.00,BKN,SKC,0.00,WeatherDisplay:10.37,2013-04-10 07:30:00,
2013-04-10 09:40:00,48.0,44.6,29.80,North,1,0.0,0.0,88,0.00,BKN,SKC,0.00,WeatherDisplay:10.37,2013-04-10 07:40:00,
2013-04-10 09:50:00,48.0,44.3,29.80,North,1,0.0,0.0,87,0.00,BKN,SKC,0.00,WeatherDisplay:10.37,2013-04-10 07:50:00,
2013-04-10 10:00:00,48.0,44.3,29.81,North,1,0.0,0.0,87,0.00,BKN,SKC,0.00,WeatherDisplay:10.37,2013-04-10 08:00:00,
2013-04-10 10:10:00,48.7,45.0,29.81,North,1,0.0,0.0,87,0.00,BKN,SKC,0.00,WeatherDisplay:10.37,2013-04-10 08:10:00,
2013-04-10 10:20:00,49.6,45.3,29.81,North,1,0.0,0.0,85,0.00,OVC,SKC,0.00,WeatherDisplay:10.37,2013-04-10 08:20:00,
2013-04-10 10:30:00,50.3,45.7,29.81,North,1,0.0,0.0,84,0.00,OVC,SKC,0.00,WeatherDisplay:10.37,2013-04-10 08:30:00,
2013-04-10 10:40:00,50.4,45.1,29.81,North,1,0.0,0.0,82,0.00,OVC,SKC,0.00,WeatherDisplay:10.37,2013-04-10 08:40:00,
2013-04-10 10:50:00,50.7,45.1,29.81,North,1,0.0,0.0,81,0.00,BKN,SKC,0.00,WeatherDisplay:10.37,2013-04-10 08:50:00,
2013-04-10 11:00:00,51.6,45.7,29.81,North,1,0.0,0.0,80,0.00,BKN,SKC,0.00,WeatherDisplay:10.37,2013-04-10 09:00:00,
2013-04-10 11:10:00,52.3,46.0,29.82,North,1,0.0,0.0,79,0.00,BKN,SKC,0.00,WeatherDisplay:10.37,2013-04-10 09:10:00,
2013-04-10 11:20:00,52.2,45.5,29.82,North,1,0.0,0.0,78,0.00,OVC,SKC,0.00,WeatherDisplay:10.37,2013-04-10 09:20:00,
2013-04-10 11:30:00,52.5,45.9,29.82,North,1,0.0,0.0,78,0.00,OVC,SKC,0.00,WeatherDisplay:10.37,2013-04-10 09:30:00,
2013-04-10 11:40:00,52.3,45.3,29.82,North,1,0.0,0.0,77,0.00,OVC,SKC,0.00,WeatherDisplay:10.37,2013-04-10 09:40:00,
2013-04-10 11:50:00,52.5,45.5,29.81,North,1,0.0,0.0,77,0.00,BKN,SKC,0.00,WeatherDisplay:10.37,2013-04-10 09:50:00,
2013-04-10 12:00:00,52.7,45.3,29.83,North,351,0.0,0.0,76,0.00,BKN,SKC,0.00,WeatherDisplay:10.37,2013-04-10 10:00:00,
2013-04-10 12:10:00,52.9,45.5,29.83,North,1,0.0,0.0,76,0.00,BKN,SKC,0.00,WeatherDisplay:10.37,2013-04-10 10:10:00,
2013-04-10 12:20:00,53.4,45.3,29.82,North,1,0.0,0.0,74,0.00,BKN,SKC,0.00,WeatherDisplay:10.37,2013-04-10 10:20:00,
2013-04-10 12:30:00,53.1,45.0,29.83,North,1,0.0,0.0,74,0.00,BKN,SKC,0.00,WeatherDisplay:10.37,2013-04-10 10:30:00,
2013-04-10 12:40:00,54.0,45.9,29.83,North,1,0.0,0.0,74,0.00,BKN,SKC,0.00,WeatherDisplay:10.37,2013-04-10 10:40:00,
2013-04-10 12:50:00,54.5,45.7,29.83,North,1,0.0,0.0,72,0.00,BKN,SKC,0.00,WeatherDisplay:10.37,2013-04-10 10:50:00,
2013-04-10 13:00:00,54.4,45.2,29.83,North,1,0.0,0.0,71,0.00,BKN,SKC,0.00,WeatherDisplay:10.37,2013-04-10 11:00:00,
2013-04-10 13:10:00,54.0,44.8,29.83,North,1,0.0,0.0,71,0.00,BKN,SKC,0.00,WeatherDisplay:10.37,2013-04-10 11:10:00,
2013-04-10 13:20:00,55.0,45.4,29.83,North,1,0.0,0.0,70,0.00,BKN,SKC,0.00,WeatherDisplay:10.37,2013-04-10 11:20:00,
2013-04-10 13:30:00,55.4,45.4,29.83,North,1,0.0,0.0,69,0.00,BKN,SKC,0.00,WeatherDisplay:10.37,2013-04-10 11:30:00,
2013-04-10 13:40:00,55.4,45.0,29.83,North,1,0.0,0.0,68,0.00,BKN,SKC,0.00,WeatherDisplay:10.37,2013-04-10 11:40:00,
2013-04-10 13:50:00,56.1,45.7,29.83,North,1,0.0,0.0,68,0.00,BKN,SKC,0.00,WeatherDisplay:10.37,2013-04-10 11:50:00,
2013-04-10 14:00:00,56.1,45.3,29.83,North,1,0.0,0.0,67,0.00,BKN,SKC,0.00,WeatherDisplay:10.37,2013-04-10 12:00:00,
2013-04-10 14:10:00,56.1,45.7,29.83,North,1,0.0,0.0,68,0.00,BKN,SKC,0.00,WeatherDisplay:10.37,2013-04-10 12:10:00,
2013-04-10 14:20:00,55.9,45.1,29.83,North,1,0.0,0.0,67,0.00,BKN,SKC,0.00,WeatherDisplay:10.37,2013-04-10 12:20:00,
2013-04-10 14:30:00,56.5,45.3,29.83,North,1,0.0,0.0,66,0.00,BKN,SKC,0.00,WeatherDisplay:10.37,2013-04-10 12:30:00,
2013-04-10 14:40:00,56.3,45.1,29.83,North,1,0.0,0.0,66,0.00,BKN,SKC,0.00,WeatherDisplay:10.37,2013-04-10 12:40:00,
2013-04-10 14:50:00,57.4,45.3,29.83,North,1,0.0,0.0,64,0.00,SCT,SKC,0.00,WeatherDisplay:10.37,2013-04-10 12:50:00,
2013-04-10 15:00:00,57.6,45.5,29.83,North,1,0.0,0.0,64,0.00,SCT,SKC,0.00,WeatherDisplay:10.37,2013-04-10 13:00:00,
2013-04-10 15:10:00,58.1,45.6,29.83,North,1,0.0,0.0,63,0.00,SCT,SKC,0.00,WeatherDisplay:10.37,2013-04-10 13:10:00,
2013-04-10 15:20:00,57.9,45.0,29.82,North,1,0.0,0.0,62,0.00,SCT,SKC,0.00,WeatherDisplay:10.37,2013-04-10 13:20:00,
2013-04-10 15:30:00,58.4,45.4,29.82,North,1,0.0,0.0,62,0.00,SCT,SKC,0.00,WeatherDisplay:10.37,2013-04-10 13:30:00,
2013-04-10 15:40:00,58.3,44.9,29.82,North,1,0.0,0.0,61,0.00,SCT,SKC,0.00,WeatherDisplay:10.37,2013-04-10 13:40:00,
2013-04-10 15:50:00,56.8,44.0,29.83,North,1,0.0,0.0,62,0.00,BKN,SKC,0.00,WeatherDisplay:10.37,2013-04-10 13:50:00,
2013-04-10 16:00:00,56.1,44.1,29.83,North,1,0.0,0.0,64,0.00,BKN,SKC,0.00,WeatherDisplay:10.37,2013-04-10 14:00:00,
2013-04-10 16:10:00,55.0,43.5,29.84,North,1,0.0,0.0,65,0.00,BKN,SKC,0.00,WeatherDisplay:10.37,2013-04-10 14:10:00,
2013-04-10 16:20:00,53.4,43.1,29.84,North,1,0.0,0.0,68,0.00,SCT,SKC,0.00,WeatherDisplay:10.37,2013-04-10 14:20:00,
2013-04-10 16:30:00,53.2,42.9,29.84,North,1,0.0,0.0,68,0.00,SCT,SKC,0.00,WeatherDisplay:10.37,2013-04-10 14:30:00,
2013-04-10 16:40:00,53.2,44.1,29.84,North,1,0.0,0.0,71,0.00,SCT,SKC,0.00,WeatherDisplay:10.37,2013-04-10 14:40:00,
2013-04-10 16:50:00,54.1,44.9,29.84,North,1,0.0,0.0,71,0.00,SCT,SKC,0.00,WeatherDisplay:10.37,2013-04-10 14:50:00,
2013-04-10 17:00:00,55.9,45.9,29.84,North,1,0.0,0.0,69,0.00,SCT,SKC,0.00,WeatherDisplay:10.37,2013-04-10 15:00:00,
2013-04-10 17:10:00,56.5,45.7,29.85,North,1,0.0,0.0,67,0.00,SCT,SKC,0.00,WeatherDisplay:10.37,2013-04-10 15:10:00,
2013-04-10 17:20:00,56.8,45.6,29.84,North,1,0.0,0.0,66,0.00,BKN,SKC,0.00,WeatherDisplay:10.37,2013-04-10 15:20:00,
2013-04-10 17:30:00,56.9,45.6,29.84,North,1,0.0,0.0,66,0.00,BKN,SKC,0.00,WeatherDisplay:10.37,2013-04-10 15:30:00,
2013-04-10 17:40:00,56.5,44.9,29.84,North,1,0.0,0.0,65,0.00,BKN,SKC,0.00,WeatherDisplay:10.37,2013-04-10 15:40:00,
2013-04-10 17:50:00,57.7,45.2,29.85,North,1,0.0,0.0,63,0.00,BKN,SKC,0.00,WeatherDisplay:10.37,2013-04-10 15:50:00,
2013-04-10 18:00:00,56.1,44.5,29.85,North,1,0.0,0.0,65,0.00,SCT,SKC,0.00,WeatherDisplay:10.37,2013-04-10 16:00:00,
2013-04-10 18:10:00,55.2,44.1,29.85,North,1,0.0,0.0,66,0.00,SCT,SKC,0.00,WeatherDisplay:10.37,2013-04-10 16:10:00,
2013-04-10 18:20:00,55.0,44.7,29.85,North,1,0.0,0.0,68,0.00,SCT,SKC,0.00,WeatherDisplay:10.37,2013-04-10 16:20:00,
2013-04-10 18:30:00,55.0,44.3,29.85,North,1,0.0,0.0,67,0.00,RA,SKC,0.18,WeatherDisplay:10.37,2013-04-10 16:30:00,
2013-04-10 18:40:00,54.8,43.3,29.86,North,1,0.0,0.0,65,0.00,SCT,SKC,0.18,WeatherDisplay:10.37,2013-04-10 16:40:00,
2013-04-10 18:50:00,54.5,43.0,29.86,North,1,0.0,0.0,65,0.00,SCT,SKC,0.18,WeatherDisplay:10.37,2013-04-10 16:50:00,
2013-04-10 19:00:00,54.0,42.9,29.86,North,1,0.0,0.0,66,0.00,SCT,SKC,0.18,WeatherDisplay:10.37,2013-04-10 17:00:00,
2013-04-10 19:10:00,53.6,42.9,29.85,North,1,0.0,0.0,67,0.00,SCT,SKC,0.18,WeatherDisplay:10.37,2013-04-10 17:10:00,
2013-04-10 19:20:00,53.1,42.4,29.86,North,1,0.0,0.0,67,0.00,SCT,SKC,0.18,WeatherDisplay:10.37,2013-04-10 17:20:00,
2013-04-10 19:30:00,52.5,42.3,29.86,North,1,0.0,0.0,68,0.00,SCT,SKC,0.18,WeatherDisplay:10.37,2013-04-10 17:30:00,
2013-04-10 19:40:00,52.0,42.5,29.86,North,1,0.0,0.0,70,0.00,SCT,SKC,0.18,WeatherDisplay:10.37,2013-04-10 17:40:00,
2013-04-10 19:50:00,51.4,42.0,29.87,North,1,0.0,0.0,70,0.00,SCT,SKC,0.18,WeatherDisplay:10.37,2013-04-10 17:50:00,
2013-04-10 20:00:00,50.7,41.6,29.87,North,1,0.0,0.0,71,0.00,SCT,SKC,0.18,WeatherDisplay:10.37,2013-04-10 18:00:00,
2013-04-10 20:10:00,49.6,41.3,29.88,North,1,0.0,0.0,73,0.00,SCT,SKC,0.18,WeatherDisplay:10.37,2013-04-10 18:10:00,
2013-04-10 20:20:00,48.4,40.5,29.87,North,1,0.0,0.0,74,0.00,SCT,SKC,0.18,WeatherDisplay:10.37,2013-04-10 18:20:00,
2013-04-10 20:30:00,47.5,40.3,29.88,North,1,0.0,0.0,76,0.00,SCT,SKC,0.18,WeatherDisplay:10.37,2013-04-10 18:30:00,
2013-04-10 20:40:00,46.9,40.1,29.88,North,1,0.0,0.0,77,0.00,SCT,SKC,0.18,WeatherDisplay:10.37,2013-04-10 18:40:00,
2013-04-10 20:50:00,46.2,40.1,29.88,North,1,0.0,0.0,79,0.00,SCT,SKC,0.18,WeatherDisplay:10.37,2013-04-10 18:50:00,
2013-04-10 21:00:00,45.2,39.4,29.88,North,1,0.0,0.0,80,0.00,SCT,SKC,0.18,WeatherDisplay:10.37,2013-04-10 19:00:00,
2013-04-10 21:10:00,44.4,38.9,29.89,North,1,0.0,0.0,81,0.00,SCT,SKC,0.18,WeatherDisplay:10.37,2013-04-10 19:10:00,
2013-04-10 21:20:00,43.9,38.7,29.89,North,1,0.0,0.0,82,0.00,SCT,SKC,0.18,WeatherDisplay:10.37,2013-04-10 19:20:00,
2013-04-10 21:30:00,43.9,39.1,29.89,North,1,0.0,0.0,83,0.00,SCT,SKC,0.18,WeatherDisplay:10.37,2013-04-10 19:30:00,
2013-04-10 21:40:00,43.7,39.2,29.90,North,1,0.0,0.0,84,0.00,SCT,SKC,0.18,WeatherDisplay:10.37,2013-04-10 19:40:00,
2013-04-10 21:50:00,43.3,38.8,29.90,North,1,0.0,0.0,84,0.00,SCT,SKC,0.18,WeatherDisplay:10.37,2013-04-10 19:50:00,
2013-04-10 22:00:00,43.9,39.6,29.90,North,1,0.0,0.0,85,0.00,SCT,SKC,0.18,WeatherDisplay:10.37,2013-04-10 20:00:00,
2013-04-10 22:10:00,45.2,40.9,29.89,North,1,0.0,0.0,85,0.00,SCT,SKC,0.18,WeatherDisplay:10.37,2013-04-10 20:10:00,
2013-04-10 22:20:00,45.5,40.9,29.90,North,1,0.0,0.0,84,0.00,SCT,SKC,0.18,WeatherDisplay:10.37,2013-04-10 20:20:00,
2013-04-10 22:30:00,45.7,40.8,29.90,North,1,0.0,0.0,83,0.00,SCT,SKC,0.18,WeatherDisplay:10.37,2013-04-10 20:30:00,
2013-04-10 22:40:00,45.7,40.8,29.90,North,1,0.0,0.0,83,0.00,SCT,SKC,0.18,WeatherDisplay:10.37,2013-04-10 20:40:00,
2013-04-10 22:50:00,46.0,41.2,29.90,North,1,0.0,0.0,83,0.00,SCT,SKC,0.18,WeatherDisplay:10.37,2013-04-10 20:50:00,
2013-04-10 23:00:00,46.2,41.0,29.90,North,1,0.0,0.0,82,0.00,SCT,SKC,0.18,WeatherDisplay:10.37,2013-04-10 21:00:00,
2013-04-10 23:10:00,46.6,41.1,29.91,North,1,0.0,0.0,81,0.00,SCT,SKC,0.18,WeatherDisplay:10.37,2013-04-10 21:10:00,
2013-04-10 23:20:00,46.6,40.7,29.91,North,1,0.0,0.0,80,0.00,SCT,SKC,0.18,WeatherDisplay:10.37,2013-04-10 21:20:00,
2013-04-10 23:30:00,46.6,40.7,29.91,North,1,0.0,0.0,80,0.00,SCT,SKC,0.18,WeatherDisplay:10.37,2013-04-10 21:30:00,
2013-04-10 23:40:00,46.6,40.7,29.91,North,1,0.0,0.0,80,0.00,SCT,SKC,0.18,WeatherDisplay:10.37,2013-04-10 21:40:00,
2013-04-10 23:50:00,45.7,39.9,29.91,North,1,0.0,0.0,80,0.00,SCT,SKC,0.18,WeatherDisplay:10.37,2013-04-10 21:50:00,